Terminal Aerodrome Forecast
Issued by NWS

Home | Current Version | Previous Version | Text Only | Print | Product List | Glossary On
Versions: 1 2 3 4 5 6 7 8 9 10 11 12 13 14
000
FTUS44 KLIX 040524
TAFMSY
TAF
KMSY 040524Z 0406/0506 20005KT P6SM FEW180 BKN250
     FM041300 22007KT P6SM SCT030 BKN250
     FM041800 20008KT P6SM SCT035 BKN050
      TEMPO 0420/0424 2SM TSRA BKN030CB=

USA.gov is the U.S. government's official web portal to all federal, state and local government web resources and services.